Time;durP1;ratioP1;P1;durP2;ratioP2;P2;SDS_P1;SDS_P2;PMS_P1;PMS_P2;Temp;Humidity;BMP_temperature;BMP_pressure;BME280_temperature;BME280_humidity;BME280_pressure;Samples;Min_cycle;Max_cycle;Signal;HPM_P1;HPM_P2
2024/01/26 00:01:08;;;;;;;;;;;;;;;6.29;63.67;95591.91;5053412;28;939;-63
2024/01/26 00:03:42;;;;;;;;;;;;;;;6.38;62.19;95599.97;5053145;28;992;-63
2024/01/26 00:06:14;;;;;;;;;;;;;;;6.32;61.97;95604.94;5053249;28;918;-62
2024/01/26 00:08:47;;;;;;;;;;;;;;;6.32;62.19;95605.78;5053102;28;1600;-63
2024/01/26 00:11:21;;;;;;;;;;;;;;;6.35;61.23;95607.34;5052754;28;922;-63
2024/01/26 00:13:55;;;;;;;;;;;;;;;6.37;61.05;95621.34;5053362;28;1013;-63
2024/01/26 00:16:29;;;;;;;;;;;;;;;6.36;61.43;95623.16;5053212;28;1910;-63
2024/01/26 00:19:03;;;;;;;;;;;;;;;6.39;61.26;95617.63;5053072;28;1308;-62
2024/01/26 00:21:36;;;;;;;;;;;;;;;6.43;60.29;95624.38;5052909;28;1049;-63
2024/01/26 00:24:11;;;;;;;;;;;;;;;6.46;60.18;95623.25;5052618;28;1078;-64
2024/01/26 00:26:45;;;;;;;;;;;;;;;6.42;60.53;95630.63;5052957;28;985;-63
2024/01/26 00:29:17;;;;;;;;;;;;;;;6.39;60.56;95632.69;5053094;28;941;-63
2024/01/26 00:31:50;;;;;;;;;;;;;;;6.38;61.10;95641.63;5053224;28;1004;-62
2024/01/26 00:34:23;;;;;;;;;;;;;;;6.34;60.59;95634.88;5052783;28;996;-62
2024/01/26 00:37:01;;;;;;;;;;;;;;;6.37;60.70;95632.81;5052758;28;1914;-63
2024/01/26 00:39:36;;;;;;;;;;;;;;;6.45;60.59;95627.75;5052800;28;956;-63
2024/01/26 00:42:09;;;;;;;;;;;;;;;6.45;62.25;95633.06;5052968;28;902;-63
2024/01/26 00:44:43;;;;;;;;;;;;;;;6.44;60.80;95627.84;5053080;28;949;-63
2024/01/26 00:47:17;;;;;;;;;;;;;;;6.47;60.07;95627.63;5052803;28;1017;-63
2024/01/26 00:49:50;;;;;;;;;;;;;;;6.37;61.48;95626.66;5052822;28;945;-64
2024/01/26 00:52:24;;;;;;;;;;;;;;;6.33;60.56;95625.22;5054961;28;1150;-63
2024/01/26 00:54:59;;;;;;;;;;;;;;;6.38;60.28;95629.19;5072993;28;1004;-63
2024/01/26 00:57:32;;;;;;;;;;;;;;;6.34;61.14;95630.41;5072545;28;1975;-63
2024/01/26 01:00:07;;;;;;;;;;;;;;;6.34;60.86;95624.28;5071833;28;968;-63
2024/01/26 01:02:41;;;;;;;;;;;;;;;6.40;59.32;95626.44;5072943;28;967;-63
2024/01/26 01:05:16;;;;;;;;;;;;;;;6.37;59.97;95624.84;5072812;28;909;-62
2024/01/26 01:07:50;;;;;;;;;;;;;;;6.34;59.33;95630.41;5072877;28;948;-63
2024/01/26 01:10:24;;;;;;;;;;;;;;;6.44;58.18;95623.38;5072461;28;896;-63
2024/01/26 01:12:58;;;;;;;;;;;;;;;6.40;60.29;95623.78;5072528;28;965;-63
2024/01/26 01:15:32;;;;;;;;;;;;;;;6.40;60.74;95629.91;5072624;28;1910;-63
2024/01/26 01:18:05;;;;;;;;;;;;;;;6.18;61.13;95625.47;5072791;28;918;-63
2024/01/26 01:20:37;;;;;;;;;;;;;;;6.13;61.31;95616.19;5072536;28;1595;-63
2024/01/26 01:23:11;;;;;;;;;;;;;;;6.08;60.43;95621.03;5072842;28;1415;-62
2024/01/26 01:25:44;;;;;;;;;;;;;;;6.03;63.17;95618.72;5075888;28;1112;-63
2024/01/26 01:28:18;;;;;;;;;;;;;;;6.01;62.02;95618.88;5075749;28;985;-63
2024/01/26 01:30:52;;;;;;;;;;;;;;;6.09;62.57;95617.41;5075766;28;938;-63
2024/01/26 01:33:26;;;;;;;;;;;;;;;6.13;60.81;95625.03;5075662;28;1767;-62
2024/01/26 01:35:59;;;;;;;;;;;;;;;6.10;62.34;95616.44;5075571;28;1975;-62
2024/01/26 01:38:32;;;;;;;;;;;;;;;6.02;61.73;95615.25;5075541;28;977;-63
2024/01/26 01:41:06;;;;;;;;;;;;;;;6.01;60.85;95612.69;5075658;28;1008;-63
2024/01/26 01:43:40;;;;;;;;;;;;;;;5.81;61.64;95617.75;5075757;28;917;-63
2024/01/26 01:46:13;;;;;;;;;;;;;;;5.75;62.82;95618.25;5075585;28;913;-63
2024/01/26 01:48:48;;;;;;;;;;;;;;;5.70;61.52;95619.56;5075508;28;1736;-63
2024/01/26 01:51:21;;;;;;;;;;;;;;;5.54;62.53;95615.44;5075635;28;917;-63
2024/01/26 01:53:53;;;;;;;;;;;;;;;5.50;62.13;95610.50;5060975;28;1149;-63
2024/01/26 01:56:28;;;;;;;;;;;;;;;5.54;62.46;95619.88;5055092;28;1988;-63
2024/01/26 01:59:03;;;;;;;;;;;;;;;5.60;63.14;95616.78;5055245;28;969;-63
2024/01/26 02:01:37;;;;;;;;;;;;;;;5.53;62.24;95616.41;5055171;28;941;-63
2024/01/26 02:04:10;;;;;;;;;;;;;;;5.44;62.72;95615.31;5055276;28;1341;-63
2024/01/26 02:06:57;;;;;;;;;;;;;;;5.39;63.47;95621.94;5055338;28;1069;-63
2024/01/26 02:09:31;;;;;;;;;;;;;;;5.57;62.88;95623.16;5055096;28;1067;-63
2024/01/26 02:12:03;;;;;;;;;;;;;;;5.57;61.91;95614.38;5055055;28;1001;-63
2024/01/26 02:14:37;;;;;;;;;;;;;;;5.74;61.76;95626.31;5055293;28;926;-63
2024/01/26 02:17:10;;;;;;;;;;;;;;;5.80;61.34;95621.34;5054918;28;1906;-63
2024/01/26 02:19:44;;;;;;;;;;;;;;;5.83;61.21;95625.59;5054889;28;1036;-62
2024/01/26 02:22:15;;;;;;;;;;;;;;;5.83;60.92;95626.44;5054890;28;1744;-63
2024/01/26 02:24:49;;;;;;;;;;;;;;;5.77;60.80;95629.56;5054616;28;1236;-63
2024/01/26 02:27:23;;;;;;;;;;;;;;;5.85;60.34;95628.97;5053911;28;933;-62
2024/01/26 02:29:58;;;;;;;;;;;;;;;5.95;60.31;95629.09;5054855;28;964;-63
2024/01/26 02:32:31;;;;;;;;;;;;;;;5.92;60.29;95624.00;5055130;28;1033;-63
2024/01/26 02:35:05;;;;;;;;;;;;;;;5.87;60.52;95640.31;5054072;28;929;-63
2024/01/26 02:37:38;;;;;;;;;;;;;;;5.93;60.58;95629.19;5054878;28;1973;-63
2024/01/26 02:40:12;;;;;;;;;;;;;;;5.88;60.83;95631.41;5053373;28;988;-63
2024/01/26 02:42:44;;;;;;;;;;;;;;;5.82;61.39;95635.38;5053442;28;1058;-62
2024/01/26 02:45:18;;;;;;;;;;;;;;;5.93;60.88;95629.19;5054357;28;1149;-63
2024/01/26 02:47:50;;;;;;;;;;;;;;;5.91;61.49;95633.78;5054553;28;1710;-63
2024/01/26 02:50:24;;;;;;;;;;;;;;;5.90;61.24;95624.16;5054532;28;976;-63
2024/01/26 02:52:58;;;;;;;;;;;;;;;5.96;61.51;95631.66;5061331;28;1204;-63
2024/01/26 02:55:30;;;;;;;;;;;;;;;5.97;61.31;95633.34;5074304;28;1914;-63
2024/01/26 02:58:05;;;;;;;;;;;;;;;5.97;60.97;95630.69;5074132;28;1519;-63
2024/01/26 03:00:38;;;;;;;;;;;;;;;5.97;62.46;95627.19;5074311;28;1006;-62
2024/01/26 03:03:13;;;;;;;;;;;;;;;5.93;60.93;95626.56;5074126;28;1067;-62
2024/01/26 03:05:44;;;;;;;;;;;;;;;5.93;59.86;95623.91;5074325;28;943;-63
2024/01/26 03:08:15;;;;;;;;;;;;;;;5.90;61.26;95620.63;5074276;28;1751;-63
2024/01/26 03:10:50;;;;;;;;;;;;;;;5.90;60.31;95620.63;5074216;28;941;-63
2024/01/26 03:13:25;;;;;;;;;;;;;;;5.88;60.47;95620.78;5073762;28;980;-63
2024/01/26 03:15:59;;;;;;;;;;;;;;;5.83;60.02;95620.28;5073683;28;1909;-63
2024/01/26 03:18:33;;;;;;;;;;;;;;;5.80;61.06;95617.88;5073995;28;1023;-63
2024/01/26 03:21:06;;;;;;;;;;;;;;;5.84;60.35;95609.56;5073901;28;1020;-63
2024/01/26 03:23:40;;;;;;;;;;;;;;;5.85;60.92;95615.69;5073670;28;992;-62
2024/01/26 03:26:13;;;;;;;;;;;;;;;5.81;60.69;95614.25;5073416;28;1100;-62
2024/01/26 03:28:46;;;;;;;;;;;;;;;5.82;61.24;95614.16;5073642;28;1488;-62
2024/01/26 03:31:20;;;;;;;;;;;;;;;5.93;59.41;95631.03;5073729;28;907;-63
2024/01/26 03:33:55;;;;;;;;;;;;;;;5.96;58.72;95631.66;5073653;28;1016;-62
2024/01/26 03:36:26;;;;;;;;;;;;;;;6.05;59.33;95630.06;5073542;28;1914;-62
2024/01/26 03:39:00;;;;;;;;;;;;;;;6.05;59.29;95622.09;5073790;28;1024;-62
2024/01/26 03:41:38;;;;;;;;;;;;;;;6.13;58.93;95638.28;5073384;28;1000;-63
2024/01/26 03:44:11;;;;;;;;;;;;;;;6.03;58.89;95626.69;5073294;28;995;-62
2024/01/26 03:46:45;;;;;;;;;;;;;;;6.00;59.34;95633.09;5072848;28;918;-63
2024/01/26 03:49:18;;;;;;;;;;;;;;;5.99;59.38;95631.41;5073450;28;1033;-63
2024/01/26 03:51:51;;;;;;;;;;;;;;;6.03;60.35;95640.84;5073517;28;973;-62
2024/01/26 03:54:23;;;;;;;;;;;;;;;6.06;59.36;95635.25;5070807;28;1924;-62
2024/01/26 03:56:57;;;;;;;;;;;;;;;6.03;59.73;95632.88;5073198;28;1918;-62
2024/01/26 03:59:32;;;;;;;;;;;;;;;6.08;59.73;95639.63;5073518;28;924;-61
2024/01/26 04:02:04;;;;;;;;;;;;;;;6.18;58.98;95635.25;5073283;28;1004;-63
2024/01/26 04:04:37;;;;;;;;;;;;;;;6.09;59.68;95638.63;5073135;28;965;-62
2024/01/26 04:07:12;;;;;;;;;;;;;;;6.08;59.80;95629.00;5073246;28;1024;-61
2024/01/26 04:09:44;;;;;;;;;;;;;;;6.12;60.05;95636.59;5073371;28;1018;-63
2024/01/26 04:12:17;;;;;;;;;;;;;;;6.08;59.93;95639.63;5073230;28;942;-60
2024/01/26 04:14:52;;;;;;;;;;;;;;;6.09;59.49;95639.50;5073037;28;941;-62
2024/01/26 04:17:25;;;;;;;;;;;;;;;6.15;59.45;95641.66;5072854;28;1910;-63
2024/01/26 04:19:59;;;;;;;;;;;;;;;6.12;59.11;95657.00;5073191;28;1004;-64
2024/01/26 04:22:33;;;;;;;;;;;;;;;6.15;59.87;95651.44;5073059;28;1016;-62
2024/01/26 04:25:06;;;;;;;;;;;;;;;6.20;59.18;95646.59;5072847;28;1096;-64
2024/01/26 04:27:41;;;;;;;;;;;;;;;6.13;59.25;95653.34;5072998;28;916;-62
2024/01/26 04:30:15;;;;;;;;;;;;;;;6.28;59.68;95657.47;5032545;28;4054;-63
2024/01/26 04:32:50;;;;;;;;;;;;;;;6.28;59.22;95659.25;5033199;28;940;-63
2024/01/26 04:35:22;;;;;;;;;;;;;;;6.18;59.85;95653.84;5032588;28;1486;-62
2024/01/26 04:37:56;;;;;;;;;;;;;;;6.17;59.73;95654.81;5033071;28;1906;-64
2024/01/26 04:40:29;;;;;;;;;;;;;;;6.20;60.13;95652.78;5032662;28;1482;-62
2024/01/26 04:43:05;;;;;;;;;;;;;;;6.14;60.17;95650.59;5047365;28;930;-65
2024/01/26 04:45:39;;;;;;;;;;;;;;;6.16;59.99;95653.97;5033098;28;933;-62
2024/01/26 04:48:13;;;;;;;;;;;;;;;6.10;60.94;95653.63;5033007;28;1037;-61
2024/01/26 04:50:47;;;;;;;;;;;;;;;5.96;59.90;95671.47;5032699;28;1016;-61
2024/01/26 04:53:19;;;;;;;;;;;;;;;6.00;60.10;95672.09;5052737;28;1456;-62
2024/01/26 04:55:54;;;;;;;;;;;;;;;6.10;61.21;95677.50;5072938;28;1909;-61
2024/01/26 04:58:28;;;;;;;;;;;;;;;6.14;60.62;95677.13;5074720;28;972;-59
2024/01/26 05:01:03;;;;;;;;;;;;;;;6.13;60.32;95683.44;5076419;28;960;-62
2024/01/26 05:03:36;;;;;;;;;;;;;;;6.16;60.46;95690.28;5076366;28;987;-62
2024/01/26 05:06:06;;;;;;;;;;;;;;;6.20;60.74;95681.13;5073687;28;1698;-62
2024/01/26 05:08:41;;;;;;;;;;;;;;;6.24;59.73;95691.41;5056405;28;908;-62
2024/01/26 05:11:16;;;;;;;;;;;;;;;6.14;60.13;95689.56;5056422;28;1503;-61
2024/01/26 05:13:48;;;;;;;;;;;;;;;5.98;60.43;95693.44;5055161;28;1636;-62
2024/01/26 05:16:21;;;;;;;;;;;;;;;6.00;59.31;95702.13;5056188;28;1917;-63
2024/01/26 05:18:55;;;;;;;;;;;;;;;5.98;59.45;95690.78;5056367;28;1459;-63
2024/01/26 05:21:27;;;;;;;;;;;;;;;6.05;59.04;95694.66;5055938;28;2529;-63
2024/01/26 05:23:59;;;;;;;;;;;;;;;6.06;59.28;95696.31;5056027;28;1723;-65
2024/01/26 05:26:32;;;;;;;;;;;;;;;6.14;58.93;95702.84;5056107;28;1490;-64
2024/01/26 05:29:06;;;;;;;;;;;;;;;6.11;59.01;95687.16;5056203;28;933;-64
2024/01/26 05:31:42;;;;;;;;;;;;;;;6.06;59.48;95685.72;5056198;28;1516;-63
2024/01/26 05:34:15;;;;;;;;;;;;;;;6.12;58.74;95699.47;5055888;28;1007;-66
2024/01/26 05:36:47;;;;;;;;;;;;;;;6.17;58.57;95695.50;5055749;28;1918;-63
2024/01/26 05:39:21;;;;;;;;;;;;;;;6.20;57.88;95705.00;5055996;28;1004;-64
2024/01/26 05:41:53;;;;;;;;;;;;;;;6.10;58.65;95704.06;5054804;28;1483;-65
2024/01/26 05:44:25;;;;;;;;;;;;;;;6.03;58.84;95714.28;5055803;28;1601;-65
2024/01/26 05:46:59;;;;;;;;;;;;;;;5.97;59.18;95702.34;5055665;28;1000;-65
2024/01/26 05:49:33;;;;;;;;;;;;;;;6.04;58.14;95716.00;5055604;28;1467;-64
2024/01/26 05:52:05;;;;;;;;;;;;;;;6.08;59.16;95704.19;5052585;28;1531;-64
2024/01/26 05:54:37;;;;;;;;;;;;;;;6.20;59.02;95719.16;5060108;28;1672;-64
2024/01/26 05:57:12;;;;;;;;;;;;;;;6.31;58.49;95718.28;5051893;28;2001;-63
2024/01/26 05:59:44;;;;;;;;;;;;;;;6.24;58.15;95725.91;5049847;28;1335;-64
2024/01/26 06:02:16;;;;;;;;;;;;;;;6.16;58.24;95727.47;5055404;28;1722;-62
2024/01/26 06:04:49;;;;;;;;;;;;;;;6.03;58.96;95731.09;5055385;28;1459;-62
2024/01/26 06:07:23;;;;;;;;;;;;;;;6.13;58.24;95733.00;5055052;28;1020;-62
2024/01/26 06:09:56;;;;;;;;;;;;;;;6.16;58.45;95733.63;5054290;28;1661;-62
2024/01/26 06:12:28;;;;;;;;;;;;;;;6.05;57.69;95738.91;5055096;28;1470;-63
2024/01/26 06:18:23;;;;;;;;;;;;;;;6.19;58.42;95741.34;5055149;28;754;-62
2024/01/26 06:20:49;;;;;;;;;;;;;;;6.20;58.05;95739.53;5055141;28;1035;-62
2024/01/26 06:23:15;;;;;;;;;;;;;;;6.25;57.45;95745.34;5054728;28;1032;-62
2024/01/26 06:25:41;;;;;;;;;;;;;;;6.19;57.60;95749.31;5054733;28;1093;-62
2024/01/26 06:28:07;;;;;;;;;;;;;;;6.13;57.88;95749.81;5054746;28;1032;-62
2024/01/26 06:30:33;;;;;;;;;;;;;;;6.33;56.90;95748.22;5054754;28;1059;-62
2024/01/26 06:32:59;;;;;;;;;;;;;;;6.28;57.30;95758.38;5054898;28;1004;-63
2024/01/26 06:35:25;;;;;;;;;;;;;;;6.37;57.26;95756.81;5054478;28;1075;-62
2024/01/26 06:37:51;;;;;;;;;;;;;;;6.69;56.70;95758.72;5054468;28;1910;-62
2024/01/26 06:40:18;;;;;;;;;;;;;;;6.83;55.63;95753.16;5054667;28;976;-62
2024/01/26 06:42:44;;;;;;;;;;;;;;;7.17;55.21;95767.22;5054604;28;996;-63
2024/01/26 06:45:11;;;;;;;;;;;;;;;7.29;55.62;95776.03;5054373;28;1005;-62
2024/01/26 06:47:37;;;;;;;;;;;;;;;7.69;53.22;95780.69;5054334;28;1024;-62
2024/01/26 06:50:04;;;;;;;;;;;;;;;8.60;52.42;95783.69;5054122;28;897;-63
2024/01/26 06:52:33;;;;;;;;;;;;;;;10.03;48.47;95776.19;5057319;28;1228;-63
2024/01/26 06:55:00;;;;;;;;;;;;;;;9.03;49.31;95798.59;5073054;28;1044;-63
2024/01/26 06:57:26;;;;;;;;;;;;;;;8.59;51.56;95781.97;5073950;28;1934;-62
2024/01/26 06:59:52;;;;;;;;;;;;;;;10.60;47.63;95791.44;5074362;28;1087;-63
2024/01/26 07:02:18;;;;;;;;;;;;;;;12.89;41.36;95825.91;5074315;28;995;-61
2024/01/26 07:04:44;;;;;;;;;;;;;;;14.45;38.16;95833.59;5057203;28;1350;-61
2024/01/26 07:07:10;;;;;;;;;;;;;;;15.75;36.24;95842.41;5050087;28;1087;-63
2024/01/26 07:09:36;;;;;;;;;;;;;;;17.43;33.19;95855.03;5053684;28;976;-65
2024/01/26 07:12:03;;;;;;;;;;;;;;;17.76;32.25;95862.78;5053504;28;1080;-65
2024/01/26 07:14:29;;;;;;;;;;;;;;;19.15;32.08;95861.72;5053565;28;957;-64
2024/01/26 07:16:55;;;;;;;;;;;;;;;18.26;30.58;95877.34;5053695;28;1989;-65
2024/01/26 07:19:21;;;;;;;;;;;;;;;18.94;29.56;95884.28;5053552;28;1037;-64
2024/01/26 07:21:47;;;;;;;;;;;;;;;19.60;28.71;95892.91;5052636;28;1011;-63
2024/01/26 07:24:13;;;;;;;;;;;;;;;20.05;28.67;95892.53;5053543;28;1228;-65
2024/01/26 07:26:41;;;;;;;;;;;;;;;20.46;27.93;95908.75;5053593;28;1091;-64
2024/01/26 07:29:07;;;;;;;;;;;;;;;20.99;26.75;95918.09;5053795;28;1004;-65
2024/01/26 07:31:33;;;;;;;;;;;;;;;21.11;26.05;95918.31;5053617;28;1063;-64
2024/01/26 07:33:59;;;;;;;;;;;;;;;21.56;27.12;95905.75;5053638;28;964;-63
2024/01/26 07:36:25;;;;;;;;;;;;;;;21.72;25.89;95915.38;5053211;28;2013;-63
2024/01/26 07:38:51;;;;;;;;;;;;;;;21.27;26.62;95904.31;5053561;28;952;-64
2024/01/26 07:41:17;;;;;;;;;;;;;;;20.51;27.05;95899.16;5053168;28;1033;-63
2024/01/26 07:43:43;;;;;;;;;;;;;;;21.38;25.92;95903.69;5053485;28;969;-63
2024/01/26 07:46:10;;;;;;;;;;;;;;;21.28;25.53;95911.41;5053382;28;1012;-63
2024/01/26 07:48:36;;;;;;;;;;;;;;;21.18;26.54;95911.00;5053032;28;1088;-63
2024/01/26 07:51:02;;;;;;;;;;;;;;;21.38;25.01;95905.53;5053333;28;1043;-62
2024/01/26 07:53:28;;;;;;;;;;;;;;;20.63;26.02;95908.41;5064454;28;1157;-63
2024/01/26 07:55:54;;;;;;;;;;;;;;;20.43;25.87;95903.75;5072956;28;1986;-63
2024/01/26 07:58:21;;;;;;;;;;;;;;;20.37;25.99;95907.25;5073060;28;1048;-63
2024/01/26 08:00:47;;;;;;;;;;;;;;;19.73;26.36;95907.59;5073283;28;996;-63
2024/01/26 08:03:13;;;;;;;;;;;;;;;18.18;27.61;95890.16;5072929;28;968;-63
2024/01/26 08:05:39;;;;;;;;;;;;;;;17.11;29.32;95891.38;5073269;28;960;-63
2024/01/26 08:08:06;;;;;;;;;;;;;;;15.81;31.15;95882.13;5073155;28;1044;-62
2024/01/26 08:10:32;;;;;;;;;;;;;;;14.09;33.80;95879.63;5073046;28;1040;-63
2024/01/26 08:12:58;;;;;;;;;;;;;;;12.59;36.13;95870.13;5072931;28;1090;-63
2024/01/26 08:15:23;;;;;;;;;;;;;;;12.26;36.75;95861.81;5073109;28;1047;-62
2024/01/26 08:17:49;;;;;;;;;;;;;;;11.62;38.76;95858.31;5072736;28;1906;-62
2024/01/26 08:20:15;;;;;;;;;;;;;;;10.96;39.79;95853.97;5071579;28;1048;-62
2024/01/26 08:22:43;;;;;;;;;;;;;;;10.49;41.65;95848.59;5072831;28;1102;-63
2024/01/26 08:25:09;;;;;;;;;;;;;;;10.59;40.34;95849.44;5072821;28;1224;-63
2024/01/26 08:27:36;;;;;;;;;;;;;;;10.72;40.73;95849.97;5072885;28;1054;-62
2024/01/26 08:30:03;;;;;;;;;;;;;;;10.88;40.34;95848.50;5072845;28;995;-63
2024/01/26 08:32:29;;;;;;;;;;;;;;;11.02;40.37;95844.50;5073452;28;1044;-63
2024/01/26 08:34:56;;;;;;;;;;;;;;;11.01;39.90;95845.50;5077004;28;1043;-63
2024/01/26 08:37:22;;;;;;;;;;;;;;;10.93;40.36;95831.03;5076739;28;1898;-63
2024/01/26 08:39:48;;;;;;;;;;;;;;;10.99;41.41;95824.25;5076996;28;1048;-61
2024/01/26 08:42:14;;;;;;;;;;;;;;;10.74;41.43;95823.91;5076837;28;974;-63
2024/01/26 08:44:40;;;;;;;;;;;;;;;10.96;41.87;95811.16;5076599;28;976;-63
2024/01/26 08:47:06;;;;;;;;;;;;;;;10.86;40.79;95821.91;5076440;28;965;-63
2024/01/26 08:49:32;;;;;;;;;;;;;;;11.04;40.62;95830.00;5076724;28;1185;-63
2024/01/26 08:51:58;;;;;;;;;;;;;;;11.02;41.04;95833.81;5076409;28;1096;-63
2024/01/26 08:54:24;;;;;;;;;;;;;;;11.04;41.17;95831.81;5057517;28;1200;-63
2024/01/26 08:56:50;;;;;;;;;;;;;;;11.09;41.13;95837.59;5056290;28;1910;-62
2024/01/26 08:59:17;;;;;;;;;;;;;;;11.02;40.30;95832.00;5056314;28;991;-63
2024/01/26 09:01:42;;;;;;;;;;;;;;;10.86;41.76;95829.09;5056170;28;1036;-63
2024/01/26 09:04:08;;;;;;;;;;;;;;;10.96;40.92;95819.19;5056136;28;1096;-63
2024/01/26 09:06:35;;;;;;;;;;;;;;;11.47;40.67;95819.63;5056304;28;1031;-62
2024/01/26 09:09:01;;;;;;;;;;;;;;;11.29;40.14;95824.97;5056340;28;1000;-62
2024/01/26 09:11:27;;;;;;;;;;;;;;;11.10;40.55;95821.38;5056112;28;1025;-61
2024/01/26 09:13:53;;;;;;;;;;;;;;;11.04;40.09;95821.97;5056299;28;977;-61
2024/01/26 09:16:19;;;;;;;;;;;;;;;11.16;39.61;95821.78;5055800;28;1993;-61
2024/01/26 09:18:45;;;;;;;;;;;;;;;11.38;39.80;95828.56;5055898;28;1049;-61
2024/01/26 09:21:11;;;;;;;;;;;;;;;11.50;39.59;95838.09;5056033;28;972;-60
2024/01/26 09:23:37;;;;;;;;;;;;;;;11.14;39.90;95830.81;5055886;28;1043;-60
2024/01/26 09:26:03;;;;;;;;;;;;;;;11.25;39.86;95835.13;5055669;28;1236;-60
2024/01/26 09:28:29;;;;;;;;;;;;;;;11.06;40.27;95832.50;5055661;28;1099;-59
2024/01/26 09:30:55;;;;;;;;;;;;;;;10.96;40.22;95832.56;5055913;28;993;-60
2024/01/26 09:33:22;;;;;;;;;;;;;;;11.31;39.90;95834.53;5055479;28;1084;-59
2024/01/26 09:35:48;;;;;;;;;;;;;;;10.92;41.15;95828.50;5055759;28;1985;-60
2024/01/26 09:38:14;;;;;;;;;;;;;;;10.97;40.24;95834.25;5055720;28;945;-60
2024/01/26 09:40:42;;;;;;;;;;;;;;;11.50;39.94;95838.94;5055988;28;999;-60
2024/01/26 09:43:08;;;;;;;;;;;;;;;11.67;39.13;95839.94;5055467;28;1064;-59
2024/01/26 09:45:34;;;;;;;;;;;;;;;10.98;39.92;95827.91;5054156;28;996;-59
2024/01/26 09:48:04;;;;;;;;;;;;;;;10.89;40.46;95826.97;5055685;28;1047;-59
2024/01/26 09:50:30;;;;;;;;;;;;;;;11.24;40.25;95835.25;5055252;28;1036;-60
2024/01/26 09:52:57;;;;;;;;;;;;;;;11.60;39.57;95830.00;5061887;28;1165;-59
2024/01/26 09:55:24;;;;;;;;;;;;;;;11.02;39.98;95821.28;5075181;28;1052;-60
2024/01/26 09:57:50;;;;;;;;;;;;;;;11.62;40.36;95828.00;5075150;28;1991;-60
2024/01/26 10:00:16;;;;;;;;;;;;;;;11.47;39.31;95817.78;5074988;28;1131;-60
2024/01/26 10:02:42;;;;;;;;;;;;;;;11.63;38.98;95816.28;5075186;28;1063;-60
2024/01/26 10:05:08;;;;;;;;;;;;;;;11.03;39.81;95819.44;5075235;28;1015;-59
2024/01/26 10:07:34;;;;;;;;;;;;;;;10.65;40.58;95816.75;5075222;28;973;-59
2024/01/26 10:10:00;;;;;;;;;;;;;;;10.55;41.21;95813.28;5073899;28;974;-59
2024/01/26 10:12:26;;;;;;;;;;;;;;;10.63;40.71;95799.19;5073834;28;1711;-60
2024/01/26 10:15:05;;;;;;;;;;;;;;;10.53;40.73;95797.38;5074861;28;1163;-60
2024/01/26 10:17:31;;;;;;;;;;;;;;;10.81;40.16;95808.09;5074631;28;1909;-59
2024/01/26 10:20:13;;;;;;;;;;;;;;;10.45;41.09;95802.63;5074804;28;1044;-59
2024/01/26 10:22:39;;;;;;;;;;;;;;;10.67;40.56;95803.25;5075017;28;968;-60
2024/01/26 10:25:05;;;;;;;;;;;;;;;11.32;40.45;95805.91;5074664;28;1078;-60
2024/01/26 10:27:32;;;;;;;;;;;;;;;10.81;41.15;95801.91;5074761;28;1060;-59
2024/01/26 10:29:58;;;;;;;;;;;;;;;10.55;41.25;95800.75;5074876;28;1000;-60
2024/01/26 10:32:27;;;;;;;;;;;;;;;10.83;40.76;95802.63;5074817;28;1055;-60
2024/01/26 10:34:57;;;;;;;;;;;;;;;10.66;40.81;95783.69;5074633;28;1048;-59
2024/01/26 10:37:26;;;;;;;;;;;;;;;10.61;41.74;95785.13;5074565;28;1910;-60
2024/01/26 10:39:53;;;;;;;;;;;;;;;11.56;40.52;95791.13;5074622;28;949;-60
2024/01/26 10:42:19;;;;;;;;;;;;;;;12.08;39.15;95792.16;5074563;28;970;-60
2024/01/26 10:44:46;;;;;;;;;;;;;;;12.05;38.17;95794.28;5074236;28;1068;-60
2024/01/26 10:47:15;;;;;;;;;;;;;;;12.15;38.81;95799.56;5074450;28;1051;-60
2024/01/26 10:49:42;;;;;;;;;;;;;;;11.82;39.51;95792.06;5074514;28;1000;-60
2024/01/26 10:52:09;;;;;;;;;;;;;;;11.86;39.09;95796.09;5074352;28;1212;-60
2024/01/26 10:54:35;;;;;;;;;;;;;;;11.80;39.39;95787.81;5054024;28;1076;-59
2024/01/26 10:57:02;;;;;;;;;;;;;;;11.47;39.55;95790.19;5052715;28;1997;-60
2024/01/26 10:59:28;;;;;;;;;;;;;;;11.68;39.49;95790.72;5053962;28;913;-59
2024/01/26 11:01:55;;;;;;;;;;;;;;;11.73;39.10;95777.72;5054240;28;999;-60
2024/01/26 11:04:21;;;;;;;;;;;;;;;11.49;39.23;95786.34;5053841;28;1108;-60
2024/01/26 11:06:47;;;;;;;;;;;;;;;11.42;39.10;95782.63;5053924;28;1045;-60
2024/01/26 11:09:15;;;;;;;;;;;;;;;11.14;39.72;95785.28;5053688;28;949;-60
2024/01/26 11:11:41;;;;;;;;;;;;;;;11.58;38.36;95792.63;5054049;28;1032;-60
2024/01/26 11:14:11;;;;;;;;;;;;;;;12.07;39.19;95782.41;5053742;28;1131;-60
2024/01/26 11:16:41;;;;;;;;;;;;;;;11.90;38.27;95780.59;5053957;28;1997;-60
2024/01/26 11:19:07;;;;;;;;;;;;;;;11.57;39.39;95780.22;5053701;28;1182;-61
2024/01/26 11:21:40;;;;;;;;;;;;;;;11.34;38.99;95782.50;5054109;28;1036;-61
2024/01/26 11:24:16;;;;;;;;;;;;;;;11.17;39.83;95772.59;5053367;28;1078;-61
2024/01/26 11:26:42;;;;;;;;;;;;;;;11.52;40.89;95775.34;5053907;28;996;-60
2024/01/26 11:29:12;;;;;;;;;;;;;;;11.41;39.36;95778.22;5053680;28;977;-60
2024/01/26 11:31:38;;;;;;;;;;;;;;;11.46;38.63;95781.31;5053467;28;1057;-60
2024/01/26 11:34:04;;;;;;;;;;;;;;;11.64;38.88;95775.97;5053680;28;1040;-60
2024/01/26 11:36:33;;;;;;;;;;;;;;;11.92;38.81;95770.56;5053173;28;1913;-60
2024/01/26 11:39:00;;;;;;;;;;;;;;;11.87;38.04;95770.13;5052078;28;1080;-60
2024/01/26 11:41:27;;;;;;;;;;;;;;;11.59;38.55;95775.59;5052322;28;974;-60
2024/01/26 11:43:58;;;;;;;;;;;;;;;11.43;38.57;95757.50;5053239;28;1072;-60
2024/01/26 11:46:25;;;;;;;;;;;;;;;11.38;39.36;95759.78;5053144;28;1025;-59
2024/01/26 11:48:51;;;;;;;;;;;;;;;11.46;39.39;95741.16;5053090;28;897;-60
2024/01/26 11:51:17;;;;;;;;;;;;;;;11.36;38.95;95752.91;5053346;28;1135;-60
2024/01/26 11:53:43;;;;;;;;;;;;;;;11.11;38.86;95748.13;5066266;28;1165;-60
2024/01/26 11:56:09;;;;;;;;;;;;;;;11.13;38.87;95740.81;5073242;28;1909;-60
2024/01/26 11:58:35;;;;;;;;;;;;;;;11.06;40.27;95729.00;5073225;28;1051;-60
2024/01/26 12:01:02;;;;;;;;;;;;;;;11.19;39.74;95717.91;5073150;28;984;-60
2024/01/26 12:03:28;;;;;;;;;;;;;;;11.10;39.41;95730.38;5072985;28;988;-62
2024/01/26 12:05:54;;;;;;;;;;;;;;;10.91;39.24;95725.16;5071785;28;1028;-63
2024/01/26 12:08:22;;;;;;;;;;;;;;;10.68;39.36;95708.63;5072392;28;1039;-62
2024/01/26 12:10:49;;;;;;;;;;;;;;;10.65;39.95;95707.13;5073129;28;1067;-62
2024/01/26 12:13:15;;;;;;;;;;;;;;;10.63;40.55;95714.44;5072894;28;952;-62
2024/01/26 12:15:41;;;;;;;;;;;;;;;10.50;39.81;95700.56;5073218;28;1732;-62
2024/01/26 12:18:10;;;;;;;;;;;;;;;10.43;40.25;95704.81;5072748;28;1902;-61
2024/01/26 12:20:36;;;;;;;;;;;;;;;10.33;39.42;95705.69;5073203;28;1020;-61
2024/01/26 12:23:02;;;;;;;;;;;;;;;10.06;39.80;95692.25;5073064;28;1035;-62
2024/01/26 12:25:28;;;;;;;;;;;;;;;10.06;41.01;95693.09;5072735;28;1262;-62
2024/01/26 12:27:54;;;;;;;;;;;;;;;10.09;40.28;95687.47;5071737;28;969;-62
2024/01/26 12:30:21;;;;;;;;;;;;;;;10.21;40.74;95677.44;5072849;28;984;-62
2024/01/26 12:32:47;;;;;;;;;;;;;;;10.13;40.93;95674.63;5072676;28;1025;-62
2024/01/26 12:35:13;;;;;;;;;;;;;;;10.14;40.92;95684.34;5072582;28;1084;-61
2024/01/26 12:37:39;;;;;;;;;;;;;;;10.12;40.50;95680.97;5072831;28;1902;-61
2024/01/26 12:40:06;;;;;;;;;;;;;;;9.91;41.63;95679.34;5072622;28;1041;-61
2024/01/26 12:42:32;;;;;;;;;;;;;;;9.84;40.88;95672.03;5072576;28;941;-62
2024/01/26 12:44:59;;;;;;;;;;;;;;;9.85;41.51;95673.75;5071297;28;1040;-62
2024/01/26 12:47:24;;;;;;;;;;;;;;;9.78;41.32;95670.78;5072444;28;961;-61
2024/01/26 12:49:50;;;;;;;;;;;;;;;9.75;41.76;95663.91;5072908;28;1047;-61
2024/01/26 12:52:18;;;;;;;;;;;;;;;9.75;41.37;95665.72;5071406;28;1149;-62
2024/01/26 12:54:45;;;;;;;;;;;;;;;9.77;42.37;95651.25;5052482;28;1050;-62
2024/01/26 12:57:11;;;;;;;;;;;;;;;9.67;41.62;95653.09;5051248;28;1993;-62
2024/01/26 12:59:37;;;;;;;;;;;;;;;9.55;42.14;95657.75;5052506;28;996;-62
2024/01/26 13:02:04;;;;;;;;;;;;;;;9.47;42.38;95656.81;5052704;28;976;-61
2024/01/26 13:04:30;;;;;;;;;;;;;;;9.48;43.03;95661.97;5052600;28;996;-62
2024/01/26 13:06:56;;;;;;;;;;;;;;;9.47;41.88;95654.97;5052679;28;1051;-62
2024/01/26 13:09:22;;;;;;;;;;;;;;;9.37;41.88;95656.78;5052544;28;969;-62
2024/01/26 13:11:49;;;;;;;;;;;;;;;9.19;42.05;95668.16;5052390;28;1053;-62
2024/01/26 13:14:15;;;;;;;;;;;;;;;9.18;42.75;95658.50;5051008;28;1091;-62
2024/01/26 13:16:41;;;;;;;;;;;;;;;9.15;43.24;95666.75;5052120;28;1914;-62
2024/01/26 13:19:07;;;;;;;;;;;;;;;9.22;42.73;95666.19;5054324;28;989;-62
2024/01/26 13:21:33;;;;;;;;;;;;;;;9.18;42.62;95661.16;5056109;28;1041;-62